Time;durP1;ratioP1;P1;durP2;ratioP2;P2;SDS_P1;SDS_P2;PMS_P1;PMS_P2;Temp;Humidity;BMP_temperature;BMP_pressure;BME280_temperature;BME280_humidity;BME280_pressure;Samples;Min_cycle;Max_cycle;Signal;HPM_P1;HPM_P2
2023/04/13 00:00:36;;;;;;;5.10;1.80;;;7.30;73.50;;;;;;5040667;28;20131;-84
2023/04/13 00:03:07;;;;;;;7.30;2.03;;;7.30;73.50;;;;;;5068628;28;20526;-82
2023/04/13 00:05:33;;;;;;;3.20;1.20;;;7.40;74.10;;;;;;5040640;28;20090;-82
2023/04/13 00:08:01;;;;;;;5.05;1.10;;;7.50;74.40;;;;;;5040574;28;20059;-82
2023/04/13 00:10:28;;;;;;;4.70;1.73;;;7.50;74.70;;;;;;5057475;28;20123;-81
2023/04/13 00:12:57;;;;;;;3.58;1.27;;;7.50;75.20;;;;;;5057279;28;20036;-80
2023/04/13 00:15:24;;;;;;;4.05;0.93;;;7.60;75.60;;;;;;5044523;28;20039;-81
2023/04/13 00:17:50;;;;;;;3.47;1.10;;;7.60;75.80;;;;;;5080368;28;20097;-81
2023/04/13 00:20:16;;;;;;;3.70;1.35;;;7.60;76.10;;;;;;5080374;28;20044;-81
2023/04/13 00:22:47;;;;;;;2.00;0.90;;;7.60;76.40;;;;;;5062240;28;20084;-80
2023/04/13 00:25:15;;;;;;;3.75;0.90;;;7.70;76.50;;;;;;5040058;28;20053;-81
2023/04/13 00:27:42;;;;;;;4.32;1.10;;;7.70;76.60;;;;;;5040272;28;20090;-81
2023/04/13 00:30:12;;;;;;;2.35;0.82;;;7.60;76.70;;;;;;5040471;28;20076;-80
2023/04/13 00:32:41;;;;;;;2.40;1.10;;;7.60;77.10;;;;;;5040047;28;20051;-80
2023/04/13 00:35:08;;;;;;;2.78;0.77;;;7.60;77.00;;;;;;5040095;28;20168;-80
2023/04/13 00:37:34;;;;;;;2.85;0.98;;;7.60;77.50;;;;;;5056636;28;20041;-80
2023/04/13 00:40:00;;;;;;;4.03;1.10;;;7.50;77.40;;;;;;5056495;28;20090;-80
2023/04/13 00:42:26;;;;;;;3.72;1.20;;;7.50;77.70;;;;;;5040201;28;20033;-80
2023/04/13 00:44:52;;;;;;;3.83;1.30;;;7.50;77.70;;;;;;5039960;28;20507;-80
2023/04/13 00:47:25;;;;;;;2.33;1.02;;;7.50;77.90;;;;;;5039920;28;20162;-80
2023/04/13 00:49:52;;;;;;;4.28;1.10;;;7.40;78.10;;;;;;5056271;28;20037;-80
2023/04/13 00:52:20;;;;;;;3.47;1.15;;;7.40;78.00;;;;;;5040001;28;20446;-80
2023/04/13 00:54:50;;;;;;;3.90;1.05;;;7.40;78.30;;;;;;5039633;28;20049;-79
2023/04/13 00:57:17;;;;;;;3.85;1.20;;;7.40;78.40;;;;;;5056471;28;20044;-80
2023/04/13 00:59:44;;;;;;;2.75;0.93;;;7.40;78.50;;;;;;5056200;28;20041;-80
2023/04/13 01:02:09;;;;;;;4.15;1.23;;;7.40;78.50;;;;;;5037861;28;20039;-80
2023/04/13 01:04:36;;;;;;;3.30;1.17;;;7.30;78.70;;;;;;5056004;28;20036;-80
2023/04/13 01:07:15;;;;;;;3.95;0.98;;;7.30;78.80;;;;;;5023129;28;20072;-80
2023/04/13 01:09:51;;;;;;;3.28;0.85;;;7.30;79.10;;;;;;5039334;28;20098;-80
2023/04/13 01:12:25;;;;;;;3.88;1.35;;;7.30;79.10;;;;;;5056031;28;20561;-80
2023/04/13 01:15:07;;;;;;;3.17;1.02;;;7.30;79.40;;;;;;5072892;28;20043;-80
2023/04/13 01:17:36;;;;;;;3.03;1.17;;;7.20;79.40;;;;;;5059332;28;20040;-80
2023/04/13 01:20:13;;;;;;;2.08;1.00;;;7.20;79.40;;;;;;5059272;28;20036;-80
2023/04/13 01:22:44;;;;;;;2.70;1.10;;;7.20;79.60;;;;;;5075944;28;20044;-80
2023/04/13 01:25:38;;;;;;;3.63;1.27;;;7.20;79.60;;;;;;5072156;28;20084;-80
2023/04/13 01:28:06;;;;;;;4.90;1.02;;;7.20;79.70;;;;;;5072398;28;20066;-80
2023/04/13 01:30:34;;;;;;;2.20;0.93;;;7.20;79.60;;;;;;5055441;28;20123;-80
2023/04/13 01:33:04;;;;;;;2.78;1.00;;;7.20;79.70;;;;;;5022929;28;20044;-81
2023/04/13 01:35:30;;;;;;;3.30;1.00;;;7.20;79.90;;;;;;5055923;28;20044;-79
2023/04/13 01:37:57;;;;;;;4.53;1.08;;;7.20;79.90;;;;;;5038939;28;20040;-80
2023/04/13 01:40:27;;;;;;;1.83;1.00;;;7.20;80.10;;;;;;5055465;28;20076;-81
2023/04/13 01:42:52;;;;;;;2.25;1.02;;;7.20;80.10;;;;;;5055678;28;20082;-81
2023/04/13 01:45:25;;;;;;;3.95;1.15;;;7.20;80.00;;;;;;5038890;28;20455;-81
2023/04/13 01:48:23;;;;;;;4.03;1.05;;;7.30;80.20;;;;;;5055331;28;20097;-81
2023/04/13 01:51:07;;;;;;;2.40;1.00;;;7.20;80.10;;;;;;5055676;28;20464;-81
2023/04/13 01:53:39;;;;;;;3.85;1.23;;;7.30;80.10;;;;;;5057608;28;20048;-80
2023/04/13 01:56:06;;;;;;;4.25;1.13;;;7.30;80.10;;;;;;5055587;28;20475;-81
2023/04/13 01:58:34;;;;;;;4.88;1.60;;;7.30;80.10;;;;;;5071984;28;20076;-80
2023/04/13 02:01:04;;;;;;;1.98;0.90;;;7.30;80.10;;;;;;5071837;28;20049;-81
2023/04/13 02:03:30;;;;;;;3.42;1.10;;;7.30;80.10;;;;;;5055000;28;20107;-81
2023/04/13 02:05:56;;;;;;;3.08;1.33;;;7.40;80.20;;;;;;5022473;28;20463;-80
2023/04/13 02:08:22;;;;;;;5.20;1.42;;;7.40;80.60;;;;;;5055145;28;20134;-80
2023/04/13 02:10:47;;;;;;;2.83;0.90;;;7.40;80.20;;;;;;5038749;28;20036;-79
2023/04/13 02:13:13;;;;;;;2.40;1.17;;;7.40;80.20;;;;;;5055061;28;20040;-80
2023/04/13 02:15:40;;;;;;;3.45;0.98;;;7.40;80.40;;;;;;5040187;28;20090;-80
2023/04/13 02:18:06;;;;;;;2.33;1.00;;;7.40;80.40;;;;;;5075806;28;20072;-80
2023/04/13 02:20:43;;;;;;;4.25;1.20;;;7.40;80.40;;;;;;5059279;28;20123;-79
2023/04/13 02:23:13;;;;;;;4.05;1.17;;;7.40;80.50;;;;;;5075714;28;20040;-79
2023/04/13 02:25:42;;;;;;;3.17;1.02;;;7.40;80.30;;;;;;5062108;28;20048;-77
2023/04/13 02:28:08;;;;;;;1.95;0.70;;;7.50;80.40;;;;;;5062700;28;20046;-78
2023/04/13 02:30:34;;;;;;;1.75;0.88;;;7.50;80.50;;;;;;5075601;28;20047;-78
2023/04/13 02:33:00;;;;;;;1.83;1.15;;;7.50;80.40;;;;;;5026203;28;20434;-78
2023/04/13 02:35:26;;;;;;;2.88;1.05;;;7.50;80.40;;;;;;5025923;28;20400;-78
2023/04/13 02:37:52;;;;;;;3.90;1.00;;;7.50;80.50;;;;;;5067572;28;20568;-78
2023/04/13 02:40:18;;;;;;;2.80;1.00;;;7.50;80.50;;;;;;5080532;28;20039;-78
2023/04/13 02:42:44;;;;;;;2.45;0.85;;;7.50;80.50;;;;;;5082492;28;20039;-78
2023/04/13 02:45:11;;;;;;;3.83;1.25;;;7.50;80.50;;;;;;5042904;28;20502;-78
2023/04/13 02:47:37;;;;;;;3.75;0.95;;;7.60;80.50;;;;;;5054105;28;20160;-78
2023/04/13 02:50:03;;;;;;;2.28;0.80;;;7.50;80.50;;;;;;5061839;28;20093;-78
2023/04/13 02:52:30;;;;;;;2.90;1.20;;;7.50;80.50;;;;;;5028949;28;20032;-78
2023/04/13 02:54:56;;;;;;;2.10;1.00;;;7.50;80.50;;;;;;5045451;28;20036;-78
2023/04/13 02:57:25;;;;;;;2.50;1.40;;;7.60;80.70;;;;;;5062063;28;20441;-78
2023/04/13 02:59:52;;;;;;;4.15;1.10;;;7.60;80.60;;;;;;5062233;28;20086;-78
2023/04/13 03:02:18;;;;;;;1.88;0.80;;;7.60;80.60;;;;;;5062392;28;20487;-78
2023/04/13 03:04:44;;;;;;;3.28;1.20;;;7.50;80.70;;;;;;5062408;28;20490;-78
2023/04/13 03:07:13;;;;;;;1.80;1.02;;;7.60;80.80;;;;;;5078837;28;20123;-78
2023/04/13 03:09:43;;;;;;;2.72;0.90;;;7.60;80.80;;;;;;5062146;28;20495;-78
2023/04/13 03:12:09;;;;;;;3.03;1.15;;;7.60;80.90;;;;;;5045073;28;20040;-79
2023/04/13 03:14:37;;;;;;;4.43;1.40;;;7.60;80.90;;;;;;5078255;28;20067;-78
2023/04/13 03:17:03;;;;;;;2.22;0.90;;;7.60;80.80;;;;;;5045119;28;20047;-78
2023/04/13 03:19:30;;;;;;;4.75;1.10;;;7.60;80.90;;;;;;5081979;28;20050;-79
2023/04/13 03:21:56;;;;;;;2.40;1.05;;;7.60;81.00;;;;;;5081652;28;20043;-78
2023/04/13 03:24:26;;;;;;;2.50;0.90;;;7.70;81.00;;;;;;5064433;28;20447;-78
2023/04/13 03:26:55;;;;;;;3.03;1.23;;;7.70;81.10;;;;;;5098116;28;20054;-78
2023/04/13 03:29:22;;;;;;;2.05;1.08;;;7.70;81.10;;;;;;5065634;28;20036;-79
2023/04/13 03:31:48;;;;;;;1.95;1.20;;;7.70;81.10;;;;;;5081297;28;20040;-79
2023/04/13 03:34:14;;;;;;;1.98;0.95;;;7.70;81.10;;;;;;5081145;28;20055;-79
2023/04/13 03:36:40;;;;;;;1.98;1.02;;;7.70;81.40;;;;;;5081136;28;20074;-79
2023/04/13 03:39:05;;;;;;;2.65;1.30;;;7.80;81.00;;;;;;5062672;28;20093;-79
2023/04/13 03:41:31;;;;;;;2.05;0.90;;;7.80;81.10;;;;;;5027979;28;20044;-79
2023/04/13 03:43:57;;;;;;;3.83;1.10;;;7.80;81.10;;;;;;5028268;28;20124;-78
2023/04/13 03:46:23;;;;;;;1.98;1.13;;;7.80;81.00;;;;;;5044533;28;20544;-78
2023/04/13 03:48:48;;;;;;;2.58;1.17;;;7.80;81.00;;;;;;5044599;28;20032;-78
2023/04/13 03:51:15;;;;;;;2.58;1.17;;;7.90;81.00;;;;;;5061197;28;20097;-78
2023/04/13 03:53:41;;;;;;;1.83;0.98;;;7.90;81.00;;;;;;5042921;28;20083;-78
2023/04/13 03:56:07;;;;;;;2.58;1.20;;;7.90;81.00;;;;;;5057482;28;20044;-79
2023/04/13 03:58:33;;;;;;;5.53;1.30;;;7.90;80.90;;;;;;5057216;28;20044;-78
2023/04/13 04:00:59;;;;;;;2.65;1.17;;;7.90;80.90;;;;;;5024329;28;20048;-79
2023/04/13 04:03:25;;;;;;;3.13;1.70;;;7.90;80.70;;;;;;5028931;28;20040;-78
2023/04/13 04:05:51;;;;;;;2.70;1.67;;;8.00;80.70;;;;;;5064022;28;20032;-78
2023/04/13 04:08:17;;;;;;;2.72;1.23;;;8.00;80.60;;;;;;5064078;28;20038;-78
2023/04/13 04:10:42;;;;;;;2.15;1.70;;;8.00;80.40;;;;;;5047711;28;20532;-78
2023/04/13 04:13:08;;;;;;;3.17;1.88;;;8.00;80.40;;;;;;5080555;28;20050;-78
2023/04/13 04:15:34;;;;;;;2.03;1.40;;;8.00;80.30;;;;;;5080614;28;20093;-78
2023/04/13 04:18:00;;;;;;;3.33;1.40;;;8.00;80.20;;;;;;5076820;28;20429;-78
2023/04/13 04:20:26;;;;;;;2.17;1.45;;;8.00;80.10;;;;;;5053645;28;20037;-78
2023/04/13 04:22:52;;;;;;;4.20;2.28;;;8.00;80.00;;;;;;5057388;28;20043;-79
2023/04/13 04:25:21;;;;;;;4.13;1.58;;;8.00;79.90;;;;;;5056468;28;20087;-78
2023/04/13 04:27:49;;;;;;;3.30;1.60;;;8.00;79.90;;;;;;5056785;28;20043;-78
2023/04/13 04:30:17;;;;;;;2.17;1.45;;;8.00;79.80;;;;;;5023698;28;20041;-78
2023/04/13 04:32:43;;;;;;;3.15;1.95;;;8.00;79.70;;;;;;5023865;28;20114;-78
2023/04/13 04:35:10;;;;;;;3.25;1.60;;;8.00;79.50;;;;;;5064076;28;20036;-78
2023/04/13 04:37:36;;;;;;;2.60;1.75;;;8.10;79.50;;;;;;5056256;28;20047;-78
2023/04/13 04:40:09;;;;;;;3.20;2.00;;;8.00;79.30;;;;;;5023230;28;20045;-78
2023/04/13 04:42:38;;;;;;;2.10;1.52;;;8.00;79.30;;;;;;5039796;28;20075;-78
2023/04/13 04:45:05;;;;;;;2.50;1.90;;;8.00;79.20;;;;;;5061325;28;20384;-78
2023/04/13 04:47:32;;;;;;;3.30;1.90;;;8.00;79.00;;;;;;5074738;28;20109;-78
2023/04/13 04:50:00;;;;;;;4.75;1.20;;;8.00;79.00;;;;;;5056204;28;20075;-78
2023/04/13 04:52:26;;;;;;;3.28;2.00;;;8.00;78.90;;;;;;5039970;28;20045;-78
2023/04/13 04:54:52;;;;;;;3.70;1.67;;;8.00;78.80;;;;;;5056194;28;20510;-78
2023/04/13 04:57:18;;;;;;;4.38;1.83;;;7.90;78.70;;;;;;5023198;28;20072;-78
2023/04/13 04:59:44;;;;;;;3.15;1.90;;;8.00;78.70;;;;;;5006700;28;20047;-79
2023/04/13 05:02:10;;;;;;;4.43;1.70;;;7.90;78.60;;;;;;5039633;28;20032;-79
2023/04/13 05:04:38;;;;;;;4.30;2.50;;;7.90;78.60;;;;;;5079359;28;20105;-80
2023/04/13 05:07:04;;;;;;;4.40;2.10;;;7.90;78.60;;;;;;5077449;28;20036;-79
2023/04/13 05:09:30;;;;;;;3.92;2.20;;;7.90;78.60;;;;;;5076614;28;20047;-78
2023/04/13 05:11:56;;;;;;;5.35;2.65;;;7.90;78.70;;;;;;5066031;28;20072;-79
2023/04/13 05:14:22;;;;;;;5.65;2.33;;;7.90;78.70;;;;;;5053084;28;20089;-79
2023/04/13 05:16:49;;;;;;;3.75;2.50;;;7.90;78.80;;;;;;5023002;28;20036;-78
2023/04/13 05:19:15;;;;;;;4.65;2.60;;;7.90;79.00;;;;;;5056003;28;20044;-79
2023/04/13 05:21:40;;;;;;;4.43;2.70;;;7.90;79.10;;;;;;5006544;28;20202;-79
2023/04/13 05:24:06;;;;;;;5.22;2.50;;;7.90;79.20;;;;;;5027306;28;20044;-80
2023/04/13 05:26:33;;;;;;;3.97;2.55;;;7.90;79.30;;;;;;5079079;28;20079;-79
2023/04/13 05:28:59;;;;;;;6.60;3.20;;;7.90;79.50;;;;;;5079130;28;20042;-79
2023/04/13 05:31:24;;;;;;;4.53;2.65;;;7.90;79.70;;;;;;5061926;28;20039;-79
2023/04/13 05:33:50;;;;;;;5.72;3.53;;;7.90;80.00;;;;;;5075715;28;20040;-77
2023/04/13 05:36:16;;;;;;;6.70;2.78;;;7.90;80.20;;;;;;5039620;28;20036;-78
2023/04/13 05:38:42;;;;;;;6.55;3.70;;;7.90;80.20;;;;;;5055643;28;20048;-78
2023/04/13 05:41:09;;;;;;;5.57;2.83;;;7.90;80.20;;;;;;5071809;28;20542;-78
2023/04/13 05:43:34;;;;;;;6.10;3.28;;;7.90;80.20;;;;;;5045899;28;20128;-78
2023/04/13 05:46:00;;;;;;;7.25;2.40;;;7.90;80.10;;;;;;5059015;28;20075;-78
2023/04/13 05:48:26;;;;;;;6.57;3.20;;;8.00;80.20;;;;;;5042250;28;20036;-79
2023/04/13 05:50:57;;;;;;;6.93;3.22;;;8.00;80.10;;;;;;5041110;28;20050;-78
2023/04/13 05:53:22;;;;;;;7.75;3.97;;;8.00;80.00;;;;;;5087732;28;20414;-78
2023/04/13 05:55:48;;;;;;;10.98;4.55;;;8.00;79.90;;;;;;5040443;28;20052;-78
2023/04/13 05:58:14;;;;;;;11.23;4.22;;;8.00;80.00;;;;;;5038147;28;20048;-79
2023/04/13 06:00:40;;;;;;;6.28;3.22;;;8.00;80.00;;;;;;5034374;28;20075;-79
2023/04/13 06:03:07;;;;;;;7.78;4.28;;;8.00;80.00;;;;;;5058976;28;20043;-79
2023/04/13 06:05:35;;;;;;;11.23;4.20;;;8.10;80.60;;;;;;5075378;28;20040;-79
2023/04/13 06:08:01;;;;;;;7.32;3.15;;;8.20;81.20;;;;;;5062740;28;20035;-79
2023/04/13 06:10:27;;;;;;;7.18;3.33;;;8.40;81.80;;;;;;5075341;28;20075;-79
2023/04/13 06:12:53;;;;;;;6.45;3.20;;;8.60;81.90;;;;;;5055249;28;20075;-79
2023/04/13 06:15:19;;;;;;;7.63;3.13;;;8.90;81.70;;;;;;5074611;28;20042;-79
2023/04/13 06:17:45;;;;;;;5.88;2.70;;;9.10;81.40;;;;;;5078920;28;20040;-80
2023/04/13 06:20:11;;;;;;;5.28;2.97;;;9.50;81.20;;;;;;5078500;28;20043;-79
2023/04/13 06:22:37;;;;;;;5.13;2.30;;;9.80;80.80;;;;;;5095608;28;20479;-79
2023/04/13 06:25:03;;;;;;;6.10;2.80;;;10.10;79.90;;;;;;5078351;28;20100;-80
2023/04/13 06:27:32;;;;;;;4.28;2.47;;;10.30;78.80;;;;;;5078866;28;20398;-80
2023/04/13 06:29:58;;;;;;;5.80;2.15;;;10.60;77.60;;;;;;5078655;28;20035;-80
2023/04/13 06:32:24;;;;;;;4.28;2.10;;;10.70;77.10;;;;;;5026808;28;20036;-80
2023/04/13 06:34:50;;;;;;;7.28;2.55;;;10.90;76.70;;;;;;5058919;28;20491;-80
2023/04/13 06:37:16;;;;;;;5.40;2.72;;;11.10;75.60;;;;;;5075326;28;20105;-80
2023/04/13 06:39:42;;;;;;;4.60;2.20;;;11.10;74.60;;;;;;5057913;28;20040;-79
2023/04/13 06:42:08;;;;;;;7.38;2.20;;;11.20;74.00;;;;;;5058303;28;20093;-79
2023/04/13 06:44:33;;;;;;;6.70;2.47;;;11.30;73.60;;;;;;5058583;28;20032;-79
2023/04/13 06:46:59;;;;;;;3.60;1.70;;;11.40;73.40;;;;;;5067053;28;20039;-79
2023/04/13 06:49:25;;;;;;;6.78;1.80;;;11.50;73.50;;;;;;5061638;28;20043;-79
2023/04/13 06:51:51;;;;;;;5.78;1.98;;;11.60;73.30;;;;;;5078495;28;20075;-79
2023/04/13 06:54:16;;;;;;;4.93;1.88;;;11.80;72.80;;;;;;5061362;28;20078;-80
2023/04/13 06:56:42;;;;;;;5.35;1.63;;;11.90;72.80;;;;;;5078291;28;20372;-79
2023/04/13 06:59:08;;;;;;;4.30;1.70;;;12.10;71.80;;;;;;5078549;28;20043;-77
2023/04/13 07:01:33;;;;;;;7.00;2.13;;;12.20;71.10;;;;;;5095860;28;20424;-78
2023/04/13 07:04:01;;;;;;;6.95;2.17;;;12.30;70.50;;;;;;5063609;28;20073;-78
2023/04/13 07:06:27;;;;;;;5.40;1.58;;;12.30;70.10;;;;;;5045316;28;20040;-78
2023/04/13 07:08:53;;;;;;;6.18;1.52;;;12.40;70.00;;;;;;5084348;28;20031;-78
2023/04/13 07:11:19;;;;;;;3.35;1.40;;;12.50;68.80;;;;;;5066013;28;20088;-78
2023/04/13 07:13:45;;;;;;;4.25;1.63;;;12.60;68.20;;;;;;5054833;28;20047;-78
2023/04/13 07:16:11;;;;;;;6.03;1.63;;;12.60;67.80;;;;;;5041411;28;20091;-78
2023/04/13 07:18:37;;;;;;;7.35;1.67;;;12.50;67.80;;;;;;5058095;28;20041;-79
2023/04/13 07:21:03;;;;;;;5.15;1.80;;;12.60;67.10;;;;;;5046004;28;20129;-78
2023/04/13 07:23:29;;;;;;;4.25;1.40;;;12.40;66.70;;;;;;5072553;28;20040;-79
2023/04/13 07:25:55;;;;;;;4.63;1.35;;;12.40;66.40;;;;;;5024894;28;20048;-79
2023/04/13 07:28:21;;;;;;;3.83;2.13;;;12.30;66.40;;;;;;5041128;28;20044;-79
2023/04/13 07:30:46;;;;;;;6.47;1.85;;;12.30;66.60;;;;;;5057866;28;20126;-79
2023/04/13 07:33:12;;;;;;;4.22;1.63;;;12.20;66.70;;;;;;5024656;28;20511;-79
2023/04/13 07:35:38;;;;;;;5.22;1.80;;;12.10;66.80;;;;;;5042236;28;20036;-80
2023/04/13 07:38:05;;;;;;;6.32;1.80;;;11.90;67.10;;;;;;5061038;28;20036;-79
2023/04/13 07:40:31;;;;;;;9.07;2.30;;;11.80;67.60;;;;;;5061016;28;20079;-78
2023/04/13 07:42:57;;;;;;;5.35;1.70;;;11.70;68.20;;;;;;5077532;28;20097;-78
2023/04/13 07:45:22;;;;;;;4.72;1.52;;;11.60;68.50;;;;;;5060831;28;20054;-78
2023/04/13 07:47:48;;;;;;;6.68;1.60;;;11.50;68.90;;;;;;5077440;28;20039;-77
2023/04/13 07:50:15;;;;;;;3.03;1.48;;;11.40;69.10;;;;;;5077685;28;20054;-77
2023/04/13 07:52:41;;;;;;;5.22;1.55;;;11.30;69.30;;;;;;5044206;28;20043;-77
2023/04/13 07:55:08;;;;;;;6.88;2.05;;;11.20;69.60;;;;;;5040498;28;20040;-77
2023/04/13 07:57:35;;;;;;;5.88;1.90;;;11.20;70.00;;;;;;5062333;28;20054;-77
2023/04/13 08:00:07;;;;;;;4.22;1.70;;;11.10;70.30;;;;;;5065585;28;20044;-79
2023/04/13 08:02:33;;;;;;;5.18;1.77;;;11.00;70.50;;;;;;5094075;28;20491;-77
2023/04/13 08:04:58;;;;;;;4.75;1.90;;;11.00;70.70;;;;;;5077539;28;20391;-78
2023/04/13 08:07:25;;;;;;;4.82;1.80;;;10.90;70.90;;;;;;5076391;28;20032;-77
2023/04/13 08:09:51;;;;;;;5.32;1.65;;;10.80;71.30;;;;;;5084242;28;20055;-77
2023/04/13 08:12:18;;;;;;;4.35;1.42;;;10.80;71.90;;;;;;5056859;28;20045;-78
2023/04/13 08:14:43;;;;;;;4.72;1.50;;;10.70;72.30;;;;;;5056525;28;20102;-78
2023/04/13 08:17:10;;;;;;;6.10;1.75;;;10.70;72.60;;;;;;5024684;28;20424;-77
2023/04/13 08:19:36;;;;;;;2.80;1.40;;;10.60;72.80;;;;;;5040101;28;20045;-77
2023/04/13 08:22:03;;;;;;;2.97;1.20;;;10.60;73.10;;;;;;5040383;28;20131;-77
2023/04/13 08:24:29;;;;;;;3.22;1.05;;;10.50;73.50;;;;;;5038270;28;20140;-78
2023/04/13 08:26:57;;;;;;;2.88;1.10;;;10.40;73.70;;;;;;5023783;28;20126;-78
2023/04/13 08:29:24;;;;;;;4.07;1.40;;;10.40;74.10;;;;;;5040013;28;20043;-78
2023/04/13 08:31:50;;;;;;;3.15;1.08;;;10.40;74.60;;;;;;5023673;28;20086;-79
2023/04/13 08:34:17;;;;;;;3.05;1.00;;;10.30;74.80;;;;;;5039951;28;20040;-78
2023/04/13 08:36:44;;;;;;;4.00;1.15;;;10.40;74.80;;;;;;5056586;28;20086;-77
2023/04/13 08:39:10;;;;;;;3.03;0.80;;;10.30;74.50;;;;;;5057025;28;20051;-78
2023/04/13 08:41:37;;;;;;;2.90;0.60;;;10.30;74.30;;;;;;5073035;28;20056;-78
2023/04/13 08:44:07;;;;;;;4.32;0.80;;;10.20;74.00;;;;;;5072946;28;20032;-76
2023/04/13 08:46:33;;;;;;;2.65;0.63;;;10.20;73.60;;;;;;5056512;28;20094;-77
2023/04/13 08:49:00;;;;;;;2.22;0.60;;;10.20;73.50;;;;;;5056725;28;20041;-77
2023/04/13 08:51:28;;;;;;;1.50;0.40;;;10.10;73.40;;;;;;5060409;28;20044;-78
2023/04/13 08:53:57;;;;;;;1.85;0.65;;;10.10;74.70;;;;;;5072762;28;20045;-78
2023/04/13 08:56:24;;;;;;;1.95;0.68;;;10.20;76.40;;;;;;5040177;28;20127;-78
2023/04/13 08:58:55;;;;;;;3.40;1.20;;;10.30;77.40;;;;;;5055206;28;20040;-77
2023/04/13 09:01:22;;;;;;;2.53;0.75;;;10.50;78.40;;;;;;5052539;28;20037;-78
2023/04/13 09:03:53;;;;;;;5.65;1.00;;;10.80;78.60;;;;;;5019822;28;20041;-77
2023/04/13 09:06:32;;;;;;;2.35;0.82;;;10.90;78.00;;;;;;5058561;28;20102;-78
2023/04/13 09:09:06;;;;;;;2.72;1.00;;;11.00;76.60;;;;;;5072789;28;20097;-77
2023/04/13 09:11:31;;;;;;;2.58;0.60;;;11.00;75.10;;;;;;5039582;28;20444;-77
2023/04/13 09:13:57;;;;;;;3.42;0.90;;;11.10;74.50;;;;;;5039195;28;20137;-78
2023/04/13 09:16:23;;;;;;;2.75;0.50;;;11.10;74.70;;;;;;5023192;28;20075;-78
2023/04/13 09:18:54;;;;;;;3.90;0.98;;;11.10;75.60;;;;;;5039160;28;20044;-78
2023/04/13 09:21:22;;;;;;;3.72;0.70;;;11.20;76.40;;;;;;5072333;28;20047;-78
2023/04/13 09:23:58;;;;;;;5.93;1.33;;;11.40;76.90;;;;;;5038932;28;20037;-78
2023/04/13 09:26:24;;;;;;;6.22;0.80;;;11.50;77.20;;;;;;5037373;28;20040;-77
2023/04/13 09:28:53;;;;;;;4.65;1.13;;;11.60;76.80;;;;;;5043300;28;20388;-76
2023/04/13 09:31:19;;;;;;;4.88;1.27;;;11.80;75.80;;;;;;5039242;28;20047;-77
2023/04/13 09:33:47;;;;;;;4.75;1.10;;;11.90;75.10;;;;;;5022576;28;20051;-77
2023/04/13 09:36:16;;;;;;;4.82;1.10;;;11.90;74.30;;;;;;5055757;28;20394;-77
2023/04/13 09:38:43;;;;;;;3.90;1.00;;;12.00;73.90;;;;;;5055682;28;20054;-77
2023/04/13 09:41:09;;;;;;;6.47;1.17;;;12.00;73.40;;;;;;5039102;28;20040;-76
2023/04/13 09:43:37;;;;;;;4.93;1.52;;;12.00;72.90;;;;;;5028483;28;20052;-76
2023/04/13 09:46:03;;;;;;;6.03;1.38;;;12.00;72.40;;;;;;5035479;28;20041;-77
2023/04/13 09:48:30;;;;;;;3.78;1.40;;;11.90;72.30;;;;;;5002967;28;20029;-77
2023/04/13 09:51:04;;;;;;;4.07;1.30;;;11.90;72.20;;;;;;5035269;28;20036;-77
2023/04/13 09:53:45;;;;;;;6.95;1.25;;;11.80;72.20;;;;;;5018885;28;20041;-77
2023/04/13 09:56:11;;;;;;;5.13;1.38;;;11.80;72.10;;;;;;5025758;28;20507;-77
2023/04/13 09:58:44;;;;;;;4.75;1.15;;;11.70;72.20;;;;;;5019054;28;20040;-77
2023/04/13 10:01:10;;;;;;;7.90;1.50;;;11.70;72.00;;;;;;5020200;28;20040;-76
2023/04/13 10:03:37;;;;;;;7.00;1.77;;;11.60;71.80;;;;;;5019044;28;20033;-76
2023/04/13 10:06:07;;;;;;;8.50;1.90;;;11.60;71.80;;;;;;5002409;28;20044;-76
2023/04/13 10:08:37;;;;;;;10.93;2.38;;;11.50;71.90;;;;;;5021857;28;20048;-76
2023/04/13 10:11:06;;;;;;;10.00;2.13;;;11.40;72.30;;;;;;5038551;28;20048;-76
2023/04/13 10:13:40;;;;;;;14.25;3.35;;;11.40;73.10;;;;;;5055078;28;20128;-77
2023/04/13 10:16:31;;;;;;;9.00;1.85;;;11.40;74.00;;;;;;5038644;28;20368;-77
2023/04/13 10:19:06;;;;;;;6.88;1.48;;;11.50;74.40;;;;;;5041048;28;20123;-77
2023/04/13 10:21:38;;;;;;;5.63;1.70;;;11.50;74.20;;;;;;5034930;28;20041;-76
2023/04/13 10:24:10;;;;;;;9.00;1.67;;;11.60;73.60;;;;;;5034686;28;20369;-77
2023/04/13 10:26:36;;;;;;;10.50;2.25;;;11.60;73.30;;;;;;5038506;28;20041;-77
2023/04/13 10:29:03;;;;;;;7.13;1.70;;;11.60;72.40;;;;;;5021772;28;20048;-77
2023/04/13 10:31:40;;;;;;;10.20;2.28;;;11.70;72.40;;;;;;5021909;28;20123;-76
2023/04/13 10:34:11;;;;;;;9.18;2.20;;;11.70;72.00;;;;;;5038131;28;20041;-77
2023/04/13 10:36:39;;;;;;;9.95;2.05;;;11.70;71.70;;;;;;5040004;28;20186;-76
2023/04/13 10:39:05;;;;;;;14.52;2.45;;;11.80;71.80;;;;;;5042559;28;20415;-76
2023/04/13 10:41:31;;;;;;;9.18;2.20;;;11.80;71.20;;;;;;5041988;28;20036;-77
2023/04/13 10:44:07;;;;;;;8.32;2.83;;;11.80;71.20;;;;;;5025742;28;20040;-76
2023/04/13 10:46:34;;;;;;;14.85;2.90;;;11.80;70.80;;;;;;5058695;28;20127;-76
2023/04/13 10:49:01;;;;;;;7.25;1.85;;;11.80;70.10;;;;;;5042728;28;20044;-76
2023/04/13 10:51:44;;;;;;;8.60;1.67;;;11.80;70.00;;;;;;5053543;28;20534;-76
2023/04/13 10:54:13;;;;;;;11.50;2.17;;;11.90;69.50;;;;;;5058300;28;20044;-76
2023/04/13 10:56:39;;;;;;;11.82;2.58;;;11.90;69.80;;;;;;5041815;28;20048;-76
2023/04/13 10:59:05;;;;;;;11.55;3.08;;;11.90;70.00;;;;;;5025277;28;20491;-76
2023/04/13 11:01:31;;;;;;;8.27;2.53;;;12.00;70.20;;;;;;5058104;28;20048;-76
2023/04/13 11:04:03;;;;;;;6.57;2.00;;;12.00;69.60;;;;;;5044092;28;20036;-76
2023/04/13 11:06:35;;;;;;;10.95;2.25;;;12.10;68.80;;;;;;5078497;28;20145;-76
2023/04/13 11:09:05;;;;;;;10.48;2.67;;;12.10;67.80;;;;;;5057955;28;20492;-76
2023/04/13 11:11:32;;;;;;;7.82;2.28;;;12.10;67.50;;;;;;5060921;28;20050;-76
2023/04/13 11:13:57;;;;;;;9.85;2.35;;;12.10;67.00;;;;;;5089257;28;20075;-76
2023/04/13 11:16:23;;;;;;;8.18;1.98;;;12.10;67.10;;;;;;5061462;28;20137;-76
2023/04/13 11:19:00;;;;;;;10.23;2.03;;;12.10;66.50;;;;;;5077924;28;20166;-76
2023/04/13 11:21:26;;;;;;;12.30;2.22;;;12.10;66.10;;;;;;5077721;28;20042;-76
2023/04/13 11:23:52;;;;;;;6.68;1.45;;;12.10;66.20;;;;;;5074154;28;20123;-76
2023/04/13 11:26:29;;;;;;;5.55;1.80;;;12.10;66.30;;;;;;5071180;28;20105;-76
2023/04/13 11:28:57;;;;;;;7.22;1.77;;;12.00;66.20;;;;;;5079587;28;20456;-76
2023/04/13 11:31:36;;;;;;;10.85;2.17;;;12.10;66.60;;;;;;5094690;28;20126;-76
2023/04/13 11:34:04;;;;;;;10.13;2.00;;;12.10;66.60;;;;;;5073711;28;20044;-76
2023/04/13 11:36:31;;;;;;;7.30;2.58;;;12.10;66.20;;;;;;5061255;28;20044;-76
2023/04/13 11:38:59;;;;;;;10.60;2.13;;;12.10;65.70;;;;;;5047369;28;20036;-76
2023/04/13 11:41:28;;;;;;;7.20;2.20;;;12.10;65.40;;;;;;5094189;28;20044;-76
2023/04/13 11:43:54;;;;;;;10.50;2.72;;;12.10;65.70;;;;;;5077730;28;20043;-76
2023/04/13 11:46:26;;;;;;;8.15;1.52;;;12.10;66.10;;;;;;5077455;28;20118;-76
2023/04/13 11:48:54;;;;;;;8.95;1.63;;;12.10;66.00;;;;;;5081916;28;20045;-76
2023/04/13 11:51:21;;;;;;;6.97;1.65;;;12.10;65.10;;;;;;5024656;28;20182;-76
2023/04/13 11:53:49;;;;;;;6.80;1.50;;;12.10;64.70;;;;;;5056963;28;20065;-76
2023/04/13 11:56:15;;;;;;;10.60;1.83;;;12.10;65.20;;;;;;5077318;28;20047;-76
2023/04/13 11:58:41;;;;;;;9.73;1.73;;;12.10;65.70;;;;;;5077203;28;20403;-76
2023/04/13 12:01:08;;;;;;;10.90;2.97;;;12.20;65.60;;;;;;5094008;28;20040;-76
2023/04/13 12:03:35;;;;;;;8.23;2.08;;;12.20;65.70;;;;;;5076762;28;20044;-76
2023/04/13 12:06:01;;;;;;;9.35;2.33;;;12.20;66.40;;;;;;5040284;28;20042;-75
2023/04/13 12:08:28;;;;;;;8.02;1.75;;;12.30;65.60;;;;;;5044474;28;20039;-76
2023/04/13 12:10:59;;;;;;;13.45;3.08;;;12.30;64.80;;;;;;5060165;28;20130;-76
2023/04/13 12:13:25;;;;;;;12.85;2.83;;;12.30;64.80;;;;;;5077029;28;20531;-76
2023/04/13 12:15:51;;;;;;;9.80;1.85;;;12.30;64.20;;;;;;5070572;28;20319;-76
2023/04/13 12:18:19;;;;;;;8.40;1.92;;;12.30;64.30;;;;;;5093596;28;20130;-76
2023/04/13 12:20:47;;;;;;;9.52;2.30;;;12.30;64.00;;;;;;5059894;28;20044;-75
2023/04/13 12:23:20;;;;;;;10.25;2.42;;;12.30;64.10;;;;;;5060125;28;20040;-75
2023/04/13 12:25:56;;;;;;;9.30;2.10;;;12.30;63.90;;;;;;5076499;28;20044;-77
2023/04/13 12:28:31;;;;;;;12.77;2.20;;;12.30;63.80;;;;;;5060377;28;20042;-77
2023/04/13 12:31:08;;;;;;;13.82;2.95;;;12.20;64.00;;;;;;5076407;28;20044;-77
2023/04/13 12:33:35;;;;;;;8.90;1.80;;;12.20;63.60;;;;;;5057266;28;20044;-76
2023/04/13 12:36:01;;;;;;;12.52;2.33;;;12.20;63.80;;;;;;5056864;28;20368;-76
2023/04/13 12:38:27;;;;;;;13.15;2.00;;;12.20;63.80;;;;;;5069763;28;20177;-76
2023/04/13 12:41:00;;;;;;;7.35;2.13;;;12.20;63.90;;;;;;5085051;28;20126;-77
2023/04/13 12:43:26;;;;;;;9.38;1.67;;;12.30;64.00;;;;;;5077979;28;20032;-77
2023/04/13 12:45:53;;;;;;;8.68;1.85;;;12.30;63.50;;;;;;5076503;28;20477;-76
2023/04/13 12:48:20;;;;;;;7.78;2.17;;;12.30;63.60;;;;;;5056554;28;20032;-77
2023/04/13 12:50:45;;;;;;;8.98;1.85;;;12.30;63.70;;;;;;5040017;28;20041;-77
2023/04/13 12:53:11;;;;;;;8.15;2.17;;;12.40;63.70;;;;;;5039737;28;20773;-76